METAR AND TAF INFORMATION
METAR FOR OIMM
ADDS - METARS form results

(0352 UTC 19 August 2018)
Data provider http://aviationweather.gov/adds/metars/
 
METAR text: OIMM 190330Z 03004KT CAVOK 27/04 Q1011 A2987
Conditions at: OIMM (MASHHAD (AFB/CIV, IR) observed 0330 UTC 19 August 2018
Temperature: 27.0°C (81°F)
Dewpoint: 4.0°C (39°F) [RH = 23%]
Pressure (altimeter): 29.85 inches Hg (1011.0 mb)
Winds: from the NNE (30 degrees) at 5 MPH (4 knots; 2.1 m/s)
Visibility: 6 or more miles (10+ km)
Ceiling: ceiling and visibility are OK
Clouds: unknown
Weather: no significant weather observed at this time

METAR text: OIMM 190300Z 33004KT CAVOK 26/06 Q1011 A2988
Conditions at: OIMM (MASHHAD (AFB/CIV, IR) observed 0300 UTC 19 August 2018
Temperature: 26.0°C (79°F)
Dewpoint: 6.0°C (43°F) [RH = 28%]
Pressure (altimeter): 29.85 inches Hg (1011.0 mb)
Winds: from the NNW (330 degrees) at 5 MPH (4 knots; 2.1 m/s)
Visibility: 6 or more miles (10+ km)
Ceiling: ceiling and visibility are OK
Clouds: unknown
Weather: no significant weather observed at this time

Forecast for: OIMM (MASHHAD (AFB/CIV, IR)
Text: TAF OIMM 182300Z 1900/2006 12004MPS CAVOK
Forecast period: 0000 UTC 19 August 2018 to 0600 UTC 20 August 2018
Forecast type: FROM: standard forecast or significant change
Winds: from the ESE (120 degrees) at 9 MPH (8 knots; 4.2 m/s)
Visibility: 6 or more miles (10+ km)
Clouds: not forecast
Weather: NSW  (no significant weather)
Text: TEMPO 1912/1918 07009MPS
Forecast period: 1200 to 1800 UTC 19 August 2018
Forecast type: TEMPORARY: The following changes expected for less than half the time period
Winds: from the ENE (70 degrees) at 20 MPH (17 knots; 8.8 m/s)
Weather: no significant weather forecast for this period

 AIRPORT MAP

 RUNWAY INFORMATION
Runway 13L Runway length 12503 ft Runway width 148 ft
Runway elevation 3226 ft Runway displaced threshold 0 ft Runway heading 134
Runway 31R Runway length 12503 ft Runway width 148 ft
Runway elevation 3257 ft Runway displaced threshold 0 ft Runway heading 314
Runway 13R Runway length 12877 ft Runway width 148 ft
Runway elevation 3231 ft Runway displaced threshold 0 ft Runway heading 134
Runway 31L Runway length 12877 ft Runway width 148 ft
Runway elevation 3263 ft Runway displaced threshold 0 ft Runway heading 314

 AIRPORT FREQUENCIES
Type APP Name APP Frequency 127.3 MHZ
Type ATIS Name ATIS Frequency 126.4 MHZ
Type TWR Name TWR Frequency 118.1 MHZ

 AIRPORT NEAR NAVIGATION AIDS
Type TACAN Name Mashhad Frequency 111900 KHZ
Type VOR-DME Name Mashhad Frequency 114000 KHZ
Type NDB Name Mashhad Frequency 385 KHZ



Copyright @ Zagros Virtual Airline